Time;durP1;ratioP1;P1;durP2;ratioP2;P2;SDS_P1;SDS_P2;PMS_P1;PMS_P2;Temp;Humidity;BMP_temperature;BMP_pressure;BME280_temperature;BME280_humidity;BME280_pressure;Samples;Min_cycle;Max_cycle;Signal;HPM_P1;HPM_P2
2021/06/15 00:00:34;;;;;;;0.30;0.30;;;;;;;;;;5113825;28;20400;-63
2021/06/15 00:03:00;;;;;;;0.30;0.30;;;;;;;;;;5113933;28;20529;-63
2021/06/15 00:05:26;;;;;;;0.20;0.20;;;;;;;;;;5113957;28;20520;-63
2021/06/15 00:07:52;;;;;;;0.27;0.27;;;;;;;;;;5113836;28;20406;-63
2021/06/15 00:10:22;;;;;;;0.30;0.30;;;;;;;;;;5113588;28;20516;-63
2021/06/15 00:12:48;;;;;;;0.20;0.20;;;;;;;;;;5113634;28;20427;-63
2021/06/15 00:15:15;;;;;;;0.20;0.20;;;;;;;;;;5113662;28;20542;-63
2021/06/15 00:17:41;;;;;;;0.30;0.30;;;;;;;;;;5113817;28;20411;-63
2021/06/15 00:20:07;;;;;;;0.20;0.20;;;;;;;;;;5113447;28;20428;-63
2021/06/15 00:22:33;;;;;;;0.20;0.20;;;;;;;;;;5113446;28;20423;-63
2021/06/15 00:24:59;;;;;;;0.30;0.30;;;;;;;;;;5113605;28;20404;-63
2021/06/15 00:27:28;;;;;;;0.30;0.30;;;;;;;;;;5113366;28;20461;-63
2021/06/15 00:29:54;;;;;;;0.30;0.30;;;;;;;;;;5113017;28;20439;-63
2021/06/15 00:32:20;;;;;;;0.20;0.20;;;;;;;;;;5112802;28;20457;-63
2021/06/15 00:34:46;;;;;;;0.20;0.20;;;;;;;;;;5095028;28;20450;-63
2021/06/15 00:37:12;;;;;;;0.20;0.20;;;;;;;;;;5113122;28;20399;-62
2021/06/15 00:39:38;;;;;;;0.20;0.20;;;;;;;;;;5113087;28;20403;-63
2021/06/15 00:42:07;;;;;;;0.20;0.20;;;;;;;;;;5113251;28;20465;-63
2021/06/15 00:44:36;;;;;;;0.20;0.20;;;;;;;;;;5113215;28;20545;-63
2021/06/15 00:47:03;;;;;;;0.20;0.20;;;;;;;;;;5113032;28;20966;-63
2021/06/15 00:49:32;;;;;;;0.30;0.30;;;;;;;;;;5112917;28;20403;-63
2021/06/15 00:51:58;;;;;;;0.30;0.30;;;;;;;;;;5112888;28;20419;-63
2021/06/15 00:54:24;;;;;;;0.20;0.20;;;;;;;;;;5112958;28;20778;-63
2021/06/15 00:56:51;;;;;;;0.30;0.30;;;;;;;;;;5113100;28;20399;-63
2021/06/15 00:59:17;;;;;;;0.20;0.20;;;;;;;;;;5112569;28;20406;-63
2021/06/15 01:01:43;;;;;;;0.20;0.20;;;;;;;;;;5112703;28;20427;-63
2021/06/15 01:04:09;;;;;;;0.20;0.20;;;;;;;;;;5112766;28;20493;-63
2021/06/15 01:06:42;;;;;;;0.30;0.30;;;;;;;;;;5112730;28;20940;-63
2021/06/15 01:09:15;;;;;;;0.30;0.30;;;;;;;;;;5112578;28;20484;-63
2021/06/15 01:11:50;;;;;;;0.20;0.20;;;;;;;;;;5112724;28;20965;-63
2021/06/15 01:14:22;;;;;;;0.30;0.30;;;;;;;;;;5112586;28;20482;-63
2021/06/15 01:16:48;;;;;;;0.20;0.20;;;;;;;;;;5113077;28;20404;-63
2021/06/15 01:19:33;;;;;;;0.20;0.20;;;;;;;;;;5112322;28;20925;-63
2021/06/15 01:22:08;;;;;;;0.20;0.20;;;;;;;;;;5112532;28;20412;-63
2021/06/15 01:25:00;;;;;;;0.20;0.20;;;;;;;;;;5113015;28;20402;-62
2021/06/15 01:27:44;;;;;;;0.20;0.20;;;;;;;;;;5112369;28;20502;-63
2021/06/15 01:30:12;;;;;;;0.20;0.20;;;;;;;;;;5112129;28;20422;-63
2021/06/15 01:32:39;;;;;;;0.23;0.23;;;;;;;;;;5112162;28;20462;-63
2021/06/15 01:35:07;;;;;;;0.20;0.20;;;;;;;;;;5112224;28;20501;-63
2021/06/15 01:37:42;;;;;;;0.30;0.30;;;;;;;;;;5112238;28;20410;-63
2021/06/15 01:40:13;;;;;;;0.30;0.30;;;;;;;;;;5111630;28;20426;-63
2021/06/15 01:42:40;;;;;;;0.20;0.20;;;;;;;;;;5112313;28;20790;-63
2021/06/15 01:45:10;;;;;;;0.30;0.30;;;;;;;;;;5112186;28;20435;-63
2021/06/15 01:47:37;;;;;;;0.20;0.20;;;;;;;;;;5111996;28;20461;-63
2021/06/15 01:50:05;;;;;;;0.20;0.20;;;;;;;;;;5112227;28;20403;-63
2021/06/15 01:52:34;;;;;;;0.20;0.20;;;;;;;;;;5112134;28;20447;-63
2021/06/15 01:55:00;;;;;;;0.20;0.20;;;;;;;;;;5112299;28;20459;-63
2021/06/15 01:57:27;;;;;;;0.20;0.20;;;;;;;;;;5112209;28;20173;-63
2021/06/15 01:59:56;;;;;;;0.20;0.20;;;;;;;;;;5111862;28;20395;-63
2021/06/15 02:02:22;;;;;;;0.30;0.30;;;;;;;;;;5111987;28;20419;-63
2021/06/15 02:04:49;;;;;;;0.30;0.30;;;;;;;;;;5111895;28;20579;-63
2021/06/15 02:07:16;;;;;;;0.30;0.30;;;;;;;;;;5111940;28;20398;-63
2021/06/15 02:09:45;;;;;;;0.30;0.30;;;;;;;;;;5111846;28;20170;-63
2021/06/15 02:12:11;;;;;;;0.30;0.30;;;;;;;;;;5111878;28;20419;-63
2021/06/15 02:14:38;;;;;;;0.20;0.20;;;;;;;;;;5111869;28;20604;-63
2021/06/15 02:17:06;;;;;;;0.20;0.20;;;;;;;;;;5111947;28;20468;-63
2021/06/15 02:19:33;;;;;;;0.30;0.30;;;;;;;;;;5111550;28;20471;-63
2021/06/15 02:22:07;;;;;;;0.20;0.20;;;;;;;;;;5111974;28;20451;-63
2021/06/15 02:24:38;;;;;;;0.20;0.20;;;;;;;;;;5112108;28;20177;-63
2021/06/15 02:27:05;;;;;;;0.30;0.30;;;;;;;;;;5111787;28;20770;-63
2021/06/15 02:29:31;;;;;;;0.20;0.20;;;;;;;;;;5111605;28;20399;-63
2021/06/15 02:32:00;;;;;;;0.20;0.20;;;;;;;;;;5111569;28;20488;-63
2021/06/15 02:34:27;;;;;;;0.30;0.30;;;;;;;;;;5111667;28;20464;-63
2021/06/15 02:36:53;;;;;;;0.30;0.30;;;;;;;;;;5111997;28;20249;-63
2021/06/15 02:39:25;;;;;;;0.20;0.20;;;;;;;;;;5111771;28;20531;-63
2021/06/15 02:41:52;;;;;;;0.20;0.20;;;;;;;;;;5111836;28;20272;-63
2021/06/15 02:44:19;;;;;;;0.20;0.20;;;;;;;;;;5111469;28;20482;-63
2021/06/15 02:46:48;;;;;;;0.30;0.30;;;;;;;;;;5111563;28;20465;-63
2021/06/15 02:49:16;;;;;;;0.30;0.30;;;;;;;;;;5111283;28;20816;-63
2021/06/15 02:51:59;;;;;;;0.20;0.20;;;;;;;;;;5112910;28;20423;-63
2021/06/15 02:54:35;;;;;;;0.30;0.30;;;;;;;;;;5115360;28;20965;-63
2021/06/15 02:57:02;;;;;;;0.30;0.30;;;;;;;;;;5115276;28;20410;-63
2021/06/15 02:59:28;;;;;;;0.30;0.30;;;;;;;;;;5115005;28;20205;-63
2021/06/15 03:01:54;;;;;;;0.30;0.30;;;;;;;;;;5115419;28;20506;-63
2021/06/15 03:04:21;;;;;;;0.30;0.30;;;;;;;;;;5115236;28;20875;-63
2021/06/15 03:06:48;;;;;;;0.20;0.20;;;;;;;;;;5116438;28;20552;-63
2021/06/15 03:09:14;;;;;;;0.20;0.20;;;;;;;;;;5114736;28;20391;-62
2021/06/15 03:11:54;;;;;;;0.30;0.30;;;;;;;;;;5114795;28;20193;-63
2021/06/15 03:14:23;;;;;;;0.20;0.20;;;;;;;;;;5114879;28;20903;-63
2021/06/15 03:16:51;;;;;;;0.20;0.20;;;;;;;;;;5115069;28;20839;-63
2021/06/15 03:19:22;;;;;;;0.20;0.20;;;;;;;;;;5114588;28;20177;-63
2021/06/15 03:21:50;;;;;;;0.30;0.30;;;;;;;;;;5114707;28;20424;-63
2021/06/15 03:24:18;;;;;;;0.30;0.30;;;;;;;;;;5114730;28;20449;-63
2021/06/15 03:26:58;;;;;;;0.30;0.30;;;;;;;;;;5114631;28;20490;-63
2021/06/15 03:29:25;;;;;;;0.30;0.30;;;;;;;;;;5114580;28;20401;-63
2021/06/15 03:31:52;;;;;;;0.30;0.30;;;;;;;;;;5114491;28;20217;-63
2021/06/15 03:34:22;;;;;;;0.30;0.30;;;;;;;;;;5114387;28;20416;-63
2021/06/15 03:36:48;;;;;;;0.30;0.30;;;;;;;;;;5114438;28;20408;-63
2021/06/15 03:39:15;;;;;;;0.30;0.30;;;;;;;;;;5114128;28;20465;-63
2021/06/15 03:41:42;;;;;;;0.30;0.30;;;;;;;;;;5114425;28;20466;-63
2021/06/15 03:44:09;;;;;;;0.30;0.30;;;;;;;;;;5114339;28;20823;-63
2021/06/15 03:46:35;;;;;;;0.30;0.30;;;;;;;;;;5114311;28;20404;-63
2021/06/15 03:49:02;;;;;;;0.30;0.30;;;;;;;;;;5113976;28;20444;-62
2021/06/15 03:51:30;;;;;;;0.30;0.30;;;;;;;;;;5114101;28;20473;-63
2021/06/15 03:54:06;;;;;;;0.20;0.20;;;;;;;;;;5114211;28;20406;-63
2021/06/15 03:56:34;;;;;;;0.30;0.30;;;;;;;;;;5114136;28;20541;-62
2021/06/15 03:59:00;;;;;;;0.23;0.23;;;;;;;;;;5114107;28;20581;-61
2021/06/15 04:01:27;;;;;;;0.30;0.30;;;;;;;;;;5114062;28;20415;-63
2021/06/15 04:03:53;;;;;;;0.30;0.30;;;;;;;;;;5113375;28;21054;-63
2021/06/15 04:06:21;;;;;;;0.30;0.30;;;;;;;;;;5114176;28;20539;-63
2021/06/15 04:08:47;;;;;;;0.30;0.30;;;;;;;;;;5113678;28;20971;-63
2021/06/15 04:11:14;;;;;;;0.30;0.30;;;;;;;;;;5113794;28;20645;-63
2021/06/15 04:13:42;;;;;;;0.30;0.30;;;;;;;;;;5113805;28;20541;-63
2021/06/15 04:16:08;;;;;;;0.20;0.20;;;;;;;;;;5113627;28;20190;-63
2021/06/15 04:18:36;;;;;;;0.30;0.30;;;;;;;;;;5113383;28;20167;-63
2021/06/15 04:21:03;;;;;;;0.30;0.30;;;;;;;;;;5113617;28;20185;-63
2021/06/15 04:23:39;;;;;;;0.30;0.30;;;;;;;;;;5113440;28;20940;-63
2021/06/15 04:26:05;;;;;;;0.30;0.30;;;;;;;;;;5113655;28;20411;-63
2021/06/15 04:28:31;;;;;;;0.30;0.30;;;;;;;;;;5113103;28;20489;-63
2021/06/15 04:30:57;;;;;;;0.30;0.30;;;;;;;;;;5113451;28;20466;-63
2021/06/15 04:33:26;;;;;;;0.30;0.30;;;;;;;;;;5113227;28;20216;-63
2021/06/15 04:35:53;;;;;;;0.30;0.30;;;;;;;;;;5113256;28;20197;-63
2021/06/15 04:38:31;;;;;;;0.20;0.20;;;;;;;;;;5113228;28;20166;-63
2021/06/15 04:41:07;;;;;;;0.30;0.30;;;;;;;;;;5113257;28;20648;-63
2021/06/15 04:43:38;;;;;;;0.30;0.30;;;;;;;;;;5113198;28;20439;-63
2021/06/15 04:46:08;;;;;;;0.20;0.20;;;;;;;;;;5113232;28;20849;-63
2021/06/15 04:48:37;;;;;;;0.30;0.30;;;;;;;;;;5112925;28;20180;-63
2021/06/15 04:51:03;;;;;;;0.30;0.30;;;;;;;;;;5113268;28;20427;-63
2021/06/15 04:53:31;;;;;;;0.30;0.30;;;;;;;;;;5112921;28;20426;-63
2021/06/15 04:55:59;;;;;;;0.30;0.30;;;;;;;;;;5112933;28;20963;-63
2021/06/15 04:58:25;;;;;;;0.25;0.25;;;;;;;;;;5112840;28;20164;-63
2021/06/15 05:00:53;;;;;;;0.30;0.30;;;;;;;;;;5112883;28;20169;-63
2021/06/15 05:03:20;;;;;;;0.20;0.20;;;;;;;;;;5112969;28;20420;-63
2021/06/15 05:05:47;;;;;;;0.20;0.20;;;;;;;;;;5112944;28;20169;-63
2021/06/15 05:08:14;;;;;;;0.20;0.20;;;;;;;;;;5112680;28;20464;-63
2021/06/15 05:10:41;;;;;;;0.20;0.20;;;;;;;;;;5112490;28;20403;-63
2021/06/15 05:13:09;;;;;;;0.20;0.20;;;;;;;;;;5112736;28;20420;-62
2021/06/15 05:15:36;;;;;;;0.20;0.20;;;;;;;;;;5111793;28;20801;-63
2021/06/15 05:18:02;;;;;;;0.30;0.30;;;;;;;;;;5112729;28;20162;-63
2021/06/15 05:20:28;;;;;;;0.30;0.30;;;;;;;;;;5112365;28;20496;-63
2021/06/15 05:23:00;;;;;;;0.30;0.30;;;;;;;;;;5105411;28;20467;-63
2021/06/15 05:25:27;;;;;;;0.30;0.30;;;;;;;;;;5101733;28;20415;-63
2021/06/15 05:27:53;;;;;;;0.27;0.27;;;;;;;;;;5104807;28;20792;-63
2021/06/15 05:30:20;;;;;;;0.30;0.30;;;;;;;;;;5104738;28;20424;-63
2021/06/15 05:32:46;;;;;;;0.30;0.30;;;;;;;;;;5113925;22;20914;-63
2021/06/15 05:35:12;;;;;;;0.20;0.20;;;;;;;;;;5090031;28;20462;-66
2021/06/15 05:37:39;;;;;;;0.20;0.20;;;;;;;;;;5091469;28;20420;-63
2021/06/15 05:40:05;;;;;;;0.20;0.20;;;;;;;;;;5091250;28;20420;-64
2021/06/15 05:42:31;;;;;;;0.20;0.20;;;;;;;;;;5084145;28;20972;-63
2021/06/15 05:44:57;;;;;;;0.20;0.20;;;;;;;;;;5071249;28;20791;-64
2021/06/15 05:47:23;;;;;;;0.20;0.20;;;;;;;;;;5070319;28;20433;-64
2021/06/15 05:49:49;;;;;;;0.20;0.20;;;;;;;;;;5071284;28;20409;-65
2021/06/15 05:52:15;;;;;;;0.30;0.30;;;;;;;;;;5071131;28;20441;-65
2021/06/15 05:54:41;;;;;;;0.20;0.20;;;;;;;;;;5071429;28;20782;-66
2021/06/15 05:57:08;;;;;;;0.30;0.30;;;;;;;;;;5053277;28;20424;-63
2021/06/15 05:59:34;;;;;;;0.20;0.20;;;;;;;;;;5071295;28;20985;-65
2021/06/15 06:02:00;;;;;;;0.30;0.30;;;;;;;;;;5070717;28;20453;-64
2021/06/15 06:04:29;;;;;;;0.20;0.20;;;;;;;;;;5071491;28;20388;-64
2021/06/15 06:09:41;;;;;;;0.20;0.20;;;;;;;;;;5070671;28;20547;-63
2021/06/15 06:12:08;;;;;;;0.20;0.20;;;;;;;;;;5070920;28;20970;-64
2021/06/15 06:14:35;;;;;;;0.20;0.20;;;;;;;;;;5071108;28;20467;-57
2021/06/15 06:17:01;;;;;;;0.20;0.20;;;;;;;;;;5071191;28;20401;-61
2021/06/15 06:19:28;;;;;;;0.20;0.20;;;;;;;;;;5070737;28;20441;-65
2021/06/15 06:21:54;;;;;;;0.20;0.20;;;;;;;;;;5067018;28;20756;-65
2021/06/15 06:24:22;;;;;;;0.20;0.20;;;;;;;;;;5071028;28;20896;-65
2021/06/15 06:26:52;;;;;;;0.20;0.20;;;;;;;;;;5072902;28;20416;-65
2021/06/15 06:29:19;;;;;;;0.20;0.20;;;;;;;;;;5074975;28;20409;-65
2021/06/15 06:31:45;;;;;;;0.20;0.20;;;;;;;;;;5075083;28;20413;-65
2021/06/15 06:34:11;;;;;;;0.30;0.30;;;;;;;;;;5074872;28;20429;-65
2021/06/15 06:36:37;;;;;;;0.20;0.20;;;;;;;;;;5075063;28;20456;-64
2021/06/15 06:39:04;;;;;;;0.20;0.20;;;;;;;;;;5078656;28;20376;-65
2021/06/15 06:41:30;;;;;;;0.20;0.20;;;;;;;;;;5080159;28;20493;-65
2021/06/15 06:43:56;;;;;;;0.20;0.20;;;;;;;;;;5076206;28;20443;-65
2021/06/15 06:46:22;;;;;;;0.20;0.20;;;;;;;;;;5074487;28;20448;-66
2021/06/15 06:48:48;;;;;;;0.20;0.20;;;;;;;;;;5073934;28;20396;-66
2021/06/15 06:51:14;;;;;;;0.20;0.20;;;;;;;;;;5074443;28;20436;-66
2021/06/15 06:53:40;;;;;;;0.30;0.30;;;;;;;;;;5074219;28;20452;-67
2021/06/15 06:56:06;;;;;;;0.20;0.20;;;;;;;;;;5074394;28;20432;-65
2021/06/15 06:58:32;;;;;;;0.20;0.20;;;;;;;;;;5074007;28;20414;-65
2021/06/15 07:00:58;;;;;;;0.20;0.20;;;;;;;;;;5074237;28;20454;-65
2021/06/15 07:03:24;;;;;;;0.20;0.20;;;;;;;;;;5074074;28;20785;-67
2021/06/15 07:05:51;;;;;;;0.20;0.20;;;;;;;;;;5074025;28;20443;-66
2021/06/15 07:08:17;;;;;;;0.20;0.20;;;;;;;;;;5074295;28;20445;-66
2021/06/15 07:10:43;;;;;;;0.20;0.20;;;;;;;;;;5074182;28;20448;-64
2021/06/15 07:13:09;;;;;;;0.20;0.20;;;;;;;;;;5074461;28;20578;-64
2021/06/15 07:15:35;;;;;;;0.20;0.20;;;;;;;;;;5074259;28;20933;-64
2021/06/15 07:18:01;;;;;;;0.20;0.20;;;;;;;;;;5074333;28;20432;-64
2021/06/15 07:20:27;;;;;;;0.20;0.20;;;;;;;;;;5074007;28;20409;-64
2021/06/15 07:22:53;;;;;;;0.20;0.20;;;;;;;;;;5072107;28;20425;-65
2021/06/15 07:25:19;;;;;;;0.20;0.20;;;;;;;;;;5073934;28;20531;-64
2021/06/15 07:27:46;;;;;;;0.20;0.20;;;;;;;;;;5073899;28;20530;-66
2021/06/15 07:30:12;;;;;;;0.20;0.20;;;;;;;;;;5073765;28;20408;-65
2021/06/15 07:32:38;;;;;;;0.20;0.20;;;;;;;;;;5073697;28;20424;-65
2021/06/15 07:35:05;;;;;;;0.20;0.20;;;;;;;;;;5073801;28;20427;-66
2021/06/15 07:37:31;;;;;;;0.20;0.20;;;;;;;;;;5073351;28;20485;-65
2021/06/15 07:39:58;;;;;;;0.20;0.20;;;;;;;;;;5073329;28;20438;-65
2021/06/15 07:42:25;;;;;;;0.20;0.20;;;;;;;;;;5073895;28;20437;-64
2021/06/15 07:44:51;;;;;;;0.20;0.20;;;;;;;;;;5073847;28;20392;-65
2021/06/15 07:47:17;;;;;;;0.20;0.20;;;;;;;;;;5073857;28;20790;-65
2021/06/15 07:49:43;;;;;;;0.20;0.20;;;;;;;;;;5073540;28;20424;-64
2021/06/15 07:52:10;;;;;;;0.20;0.20;;;;;;;;;;5073821;28;20408;-64
2021/06/15 07:54:36;;;;;;;0.20;0.20;;;;;;;;;;5073666;28;20419;-65
2021/06/15 07:57:03;;;;;;;0.20;0.20;;;;;;;;;;5073535;28;20909;-65
2021/06/15 07:59:29;;;;;;;0.20;0.20;;;;;;;;;;5073257;28;20401;-65
2021/06/15 08:01:55;;;;;;;0.20;0.20;;;;;;;;;;5073310;28;20410;-66
2021/06/15 08:04:21;;;;;;;0.20;0.20;;;;;;;;;;5073335;28;20433;-65
2021/06/15 08:06:47;;;;;;;0.20;0.20;;;;;;;;;;5073326;28;20379;-65
2021/06/15 08:09:13;;;;;;;0.20;0.20;;;;;;;;;;5073107;28;20437;-65
2021/06/15 08:11:39;;;;;;;0.20;0.20;;;;;;;;;;5073392;28;20417;-66
2021/06/15 08:14:05;;;;;;;0.20;0.20;;;;;;;;;;5073458;28;20406;-64
2021/06/15 08:16:31;;;;;;;0.20;0.20;;;;;;;;;;5073095;28;20428;-64
2021/06/15 08:18:57;;;;;;;0.20;0.20;;;;;;;;;;5072950;28;20489;-64
2021/06/15 08:21:23;;;;;;;0.20;0.20;;;;;;;;;;5073394;28;20960;-64
2021/06/15 08:23:49;;;;;;;0.20;0.20;;;;;;;;;;5073054;28;20786;-64
2021/06/15 08:26:15;;;;;;;0.20;0.20;;;;;;;;;;5073030;28;20413;-65
2021/06/15 08:28:41;;;;;;;0.20;0.20;;;;;;;;;;5072643;28;20467;-64
2021/06/15 08:31:07;;;;;;;0.20;0.20;;;;;;;;;;5073010;28;20443;-64
2021/06/15 08:33:33;;;;;;;0.20;0.20;;;;;;;;;;5072684;28;20448;-65
2021/06/15 08:35:59;;;;;;;0.20;0.20;;;;;;;;;;5072804;28;20471;-64
2021/06/15 08:38:25;;;;;;;0.20;0.20;;;;;;;;;;5072836;28;20388;-65
2021/06/15 08:40:52;;;;;;;0.20;0.20;;;;;;;;;;5072680;28;20373;-65
2021/06/15 08:43:19;;;;;;;0.20;0.20;;;;;;;;;;5072704;28;20469;-65
2021/06/15 08:45:45;;;;;;;0.20;0.20;;;;;;;;;;5072634;28;20843;-65
2021/06/15 08:48:13;;;;;;;0.20;0.20;;;;;;;;;;5072482;28;20501;-64
2021/06/15 08:50:39;;;;;;;0.20;0.20;;;;;;;;;;5072129;28;20434;-66
2021/06/15 08:53:08;;;;;;;0.20;0.20;;;;;;;;;;5072266;28;20905;-66
2021/06/15 08:55:35;;;;;;;0.17;0.17;;;;;;;;;;5072415;28;20835;-66
2021/06/15 08:58:17;;;;;;;0.20;0.20;;;;;;;;;;5072110;28;20405;-67
2021/06/15 09:00:44;;;;;;;0.13;0.13;;;;;;;;;;5072158;28;20402;-66
2021/06/15 09:03:12;;;;;;;0.20;0.20;;;;;;;;;;5072172;28;20799;-66
2021/06/15 09:05:38;;;;;;;0.20;0.20;;;;;;;;;;5072259;28;20488;-66
2021/06/15 09:08:09;;;;;;;0.20;0.20;;;;;;;;;;5072168;28;20559;-66
2021/06/15 09:10:45;;;;;;;0.10;0.10;;;;;;;;;;5072050;28;20918;-66
2021/06/15 09:13:30;;;;;;;0.10;0.10;;;;;;;;;;5072026;28;20428;-66
2021/06/15 09:15:57;;;;;;;0.17;0.17;;;;;;;;;;5070654;28;20461;-66
2021/06/15 09:18:30;;;;;;;0.20;0.20;;;;;;;;;;5071889;28;20927;-66
2021/06/15 09:20:59;;;;;;;0.20;0.20;;;;;;;;;;5072000;28;20521;-67
2021/06/15 09:23:36;;;;;;;0.10;0.10;;;;;;;;;;5071973;28;20512;-66
2021/06/15 09:26:02;;;;;;;0.20;0.20;;;;;;;;;;5071882;28;20412;-67
2021/06/15 09:28:28;;;;;;;0.10;0.10;;;;;;;;;;5071581;28;20908;-66
2021/06/15 09:31:00;;;;;;;0.10;0.10;;;;;;;;;;5071878;28;20441;-67
2021/06/15 09:33:42;;;;;;;0.10;0.10;;;;;;;;;;5071633;28;20449;-66
2021/06/15 09:36:29;;;;;;;0.10;0.10;;;;;;;;;;5071756;28;20522;-66
2021/06/15 09:38:59;;;;;;;0.10;0.10;;;;;;;;;;5071583;28;20484;-66
2021/06/15 09:41:41;;;;;;;0.20;0.20;;;;;;;;;;5071775;28;20963;-66
2021/06/15 09:44:13;;;;;;;0.10;0.10;;;;;;;;;;5071674;28;20892;-66
2021/06/15 09:46:46;;;;;;;0.10;0.10;;;;;;;;;;5071733;28;20417;-66
2021/06/15 09:49:13;;;;;;;0.10;0.10;;;;;;;;;;5071420;28;20406;-66
2021/06/15 09:51:40;;;;;;;0.10;0.10;;;;;;;;;;5071655;28;20855;-66
2021/06/15 09:54:06;;;;;;;0.10;0.10;;;;;;;;;;5071583;28;20406;-66
2021/06/15 09:56:32;;;;;;;0.20;0.20;;;;;;;;;;5071383;28;20874;-65
2021/06/15 09:58:59;;;;;;;0.10;0.10;;;;;;;;;;5071314;28;20423;-66
2021/06/15 10:01:32;;;;;;;0.10;0.10;;;;;;;;;;5079865;28;20447;-67
2021/06/15 10:04:07;;;;;;;0.10;0.10;;;;;;;;;;5098087;28;20431;-66
2021/06/15 10:06:37;;;;;;;0.10;0.10;;;;;;;;;;5098009;28;20415;-67
2021/06/15 10:09:03;;;;;;;0.20;0.20;;;;;;;;;;5097896;28;20452;-67
2021/06/15 10:11:31;;;;;;;0.10;0.10;;;;;;;;;;5097721;28;20565;-66
2021/06/15 10:13:57;;;;;;;0.20;0.20;;;;;;;;;;5097954;28;20472;-65
2021/06/15 10:16:23;;;;;;;0.10;0.10;;;;;;;;;;5097890;28;20487;-66
2021/06/15 10:18:49;;;;;;;0.10;0.10;;;;;;;;;;5097828;28;20392;-65
2021/06/15 10:21:16;;;;;;;0.20;0.20;;;;;;;;;;5098065;28;20802;-65
2021/06/15 10:23:43;;;;;;;0.10;0.10;;;;;;;;;;5098056;28;20436;-64
2021/06/15 10:26:09;;;;;;;0.17;0.17;;;;;;;;;;5098144;28;20423;-66
2021/06/15 10:28:36;;;;;;;0.20;0.20;;;;;;;;;;5097778;28;20837;-65
2021/06/15 10:31:03;;;;;;;0.20;0.20;;;;;;;;;;5097947;28;20423;-67
2021/06/15 10:33:41;;;;;;;0.10;0.10;;;;;;;;;;5097796;28;20917;-64
2021/06/15 10:36:07;;;;;;;0.20;0.20;;;;;;;;;;5097949;28;20467;-65
2021/06/15 10:38:35;;;;;;;0.10;0.10;;;;;;;;;;5097793;28;20824;-65
2021/06/15 10:41:02;;;;;;;0.10;0.10;;;;;;;;;;5097166;28;20411;-65
2021/06/15 10:43:29;;;;;;;0.10;0.10;;;;;;;;;;5098019;28;20435;-66
2021/06/15 10:46:00;;;;;;;0.10;0.10;;;;;;;;;;5079772;28;20960;-65
2021/06/15 10:48:29;;;;;;;0.10;0.10;;;;;;;;;;5097559;28;20416;-64
2021/06/15 10:50:56;;;;;;;0.10;0.10;;;;;;;;;;5097918;28;20487;-66
2021/06/15 10:53:39;;;;;;;0.20;0.20;;;;;;;;;;5105298;28;20438;-65
2021/06/15 10:56:10;;;;;;;0.10;0.10;;;;;;;;;;5107268;28;20462;-65
2021/06/15 10:58:36;;;;;;;0.10;0.10;;;;;;;;;;5104277;28;20461;-65
2021/06/15 11:01:18;;;;;;;0.20;0.20;;;;;;;;;;5100097;28;20408;-65
2021/06/15 11:03:58;;;;;;;0.20;0.20;;;;;;;;;;5097973;28;20428;-64
2021/06/15 11:06:27;;;;;;;0.10;0.10;;;;;;;;;;5097784;28;20460;-64
2021/06/15 11:09:14;;;;;;;0.10;0.10;;;;;;;;;;5097727;28;20397;-64
2021/06/15 11:11:41;;;;;;;0.10;0.10;;;;;;;;;;5098137;28;20927;-64
2021/06/15 11:14:08;;;;;;;0.20;0.20;;;;;;;;;;5094731;28;20444;-64
2021/06/15 11:16:45;;;;;;;0.20;0.20;;;;;;;;;;5094682;28;20401;-65
2021/06/15 11:19:11;;;;;;;0.20;0.20;;;;;;;;;;5094236;28;20412;-65
2021/06/15 11:21:47;;;;;;;0.20;0.20;;;;;;;;;;5094102;28;20412;-67
2021/06/15 11:24:22;;;;;;;0.20;0.20;;;;;;;;;;5094587;28;20400;-66
2021/06/15 11:26:48;;;;;;;0.20;0.20;;;;;;;;;;5094391;28;20459;-66
2021/06/15 11:29:28;;;;;;;0.20;0.20;;;;;;;;;;5094007;28;20927;-65
2021/06/15 11:31:54;;;;;;;0.20;0.20;;;;;;;;;;5094087;28;20419;-65
2021/06/15 11:34:21;;;;;;;0.20;0.20;;;;;;;;;;5108291;22;20532;-63
2021/06/15 11:36:52;;;;;;;0.20;0.20;;;;;;;;;;5094195;28;20396;-63
2021/06/15 11:39:27;;;;;;;0.20;0.20;;;;;;;;;;5075818;28;20409;-63
2021/06/15 11:42:08;;;;;;;0.20;0.20;;;;;;;;;;5094262;28;20825;-63
2021/06/15 11:44:47;;;;;;;0.20;0.20;;;;;;;;;;5074482;28;20413;-63
2021/06/15 11:47:28;;;;;;;0.20;0.20;;;;;;;;;;5072021;28;20793;-63
2021/06/15 11:50:06;;;;;;;0.20;0.20;;;;;;;;;;5072787;28;20401;-63
2021/06/15 11:52:32;;;;;;;0.20;0.20;;;;;;;;;;5072359;28;20791;-63
2021/06/15 11:54:58;;;;;;;0.20;0.20;;;;;;;;;;5073221;28;20964;-63
2021/06/15 11:57:25;;;;;;;0.20;0.20;;;;;;;;;;5055071;28;20413;-63
2021/06/15 11:59:51;;;;;;;0.20;0.20;;;;;;;;;;5072972;28;20427;-63
2021/06/15 12:02:21;;;;;;;0.20;0.20;;;;;;;;;;5073078;28;20898;-63
2021/06/15 12:05:06;;;;;;;0.20;0.20;;;;;;;;;;5073133;28;20488;-63
2021/06/15 12:07:32;;;;;;;0.20;0.20;;;;;;;;;;5072950;28;20404;-63
2021/06/15 12:10:02;;;;;;;0.20;0.20;;;;;;;;;;5072607;28;20427;-63
2021/06/15 12:12:28;;;;;;;0.20;0.20;;;;;;;;;;5072130;28;20776;-63
2021/06/15 12:14:54;;;;;;;0.20;0.20;;;;;;;;;;5072466;28;20413;-63
2021/06/15 12:17:20;;;;;;;0.20;0.20;;;;;;;;;;5072635;28;20469;-63
2021/06/15 12:19:46;;;;;;;0.20;0.20;;;;;;;;;;5072522;28;20455;-63
2021/06/15 12:22:15;;;;;;;0.20;0.20;;;;;;;;;;5072535;28;20429;-63
2021/06/15 12:24:44;;;;;;;0.20;0.20;;;;;;;;;;5072713;28;21092;-63
2021/06/15 12:27:20;;;;;;;0.20;0.20;;;;;;;;;;5072632;28;20412;-63
2021/06/15 12:29:46;;;;;;;0.20;0.20;;;;;;;;;;5072659;28;20488;-63
2021/06/15 12:32:12;;;;;;;0.20;0.20;;;;;;;;;;5072552;28;20488;-62
2021/06/15 12:34:38;;;;;;;0.20;0.20;;;;;;;;;;5072447;28;20513;-62
2021/06/15 12:37:05;;;;;;;0.20;0.20;;;;;;;;;;5072286;28;20455;-63
2021/06/15 12:39:33;;;;;;;0.20;0.20;;;;;;;;;;5072187;28;20412;-63
2021/06/15 12:42:01;;;;;;;0.20;0.20;;;;;;;;;;5072168;28;20397;-63
2021/06/15 12:44:29;;;;;;;0.20;0.20;;;;;;;;;;5072138;28;20410;-63
2021/06/15 12:46:59;;;;;;;0.20;0.20;;;;;;;;;;5072082;28;20851;-63
2021/06/15 12:49:25;;;;;;;0.20;0.20;;;;;;;;;;5071868;28;20455;-63
2021/06/15 12:51:53;;;;;;;0.20;0.20;;;;;;;;;;5072318;28;20404;-63
2021/06/15 12:54:36;;;;;;;0.20;0.20;;;;;;;;;;5071277;28;20514;-62
2021/06/15 12:57:18;;;;;;;0.20;0.20;;;;;;;;;;5071981;28;20444;-63
2021/06/15 12:59:45;;;;;;;0.20;0.20;;;;;;;;;;5071768;28;20478;-63
2021/06/15 13:02:11;;;;;;;0.20;0.20;;;;;;;;;;5071781;28;20419;-62
2021/06/15 13:04:44;;;;;;;0.20;0.20;;;;;;;;;;5076489;28;20444;-62
2021/06/15 13:07:12;;;;;;;0.20;0.20;;;;;;;;;;5092155;28;20405;-63
2021/06/15 13:09:38;;;;;;;0.20;0.20;;;;;;;;;;5091741;28;20403;-63
2021/06/15 13:12:08;;;;;;;0.20;0.20;;;;;;;;;;5073849;28;20452;-63
2021/06/15 13:14:44;;;;;;;0.20;0.20;;;;;;;;;;5091677;28;20413;-63
2021/06/15 13:17:18;;;;;;;0.20;0.20;;;;;;;;;;5091895;28;20393;-63
2021/06/15 13:19:46;;;;;;;0.20;0.20;;;;;;;;;;5091700;28;20393;-62
2021/06/15 13:22:19;;;;;;;0.20;0.20;;;;;;;;;;5091943;28;20408;-63
2021/06/15 13:24:46;;;;;;;0.20;0.20;;;;;;;;;;5091648;28;20397;-62
2021/06/15 13:27:21;;;;;;;0.20;0.20;;;;;;;;;;5091310;28;20410;-63
2021/06/15 13:29:48;;;;;;;0.20;0.20;;;;;;;;;;5091573;28;20410;-62
2021/06/15 13:32:18;;;;;;;0.20;0.20;;;;;;;;;;5091802;28;20807;-63
2021/06/15 13:35:17;;;;;;;0.20;0.20;;;;;;;;;;5091211;28;20757;-63
2021/06/15 13:37:54;;;;;;;0.20;0.20;;;;;;;;;;5056845;28;20426;-63
2021/06/15 13:40:29;;;;;;;0.20;0.20;;;;;;;;;;5091552;28;20486;-62
2021/06/15 13:42:56;;;;;;;0.20;0.20;;;;;;;;;;5091328;28;20954;-62
2021/06/15 13:45:30;;;;;;;0.20;0.20;;;;;;;;;;5091368;28;20526;-62
2021/06/15 13:47:56;;;;;;;0.20;0.20;;;;;;;;;;5091247;28;20534;-63
2021/06/15 13:50:22;;;;;;;0.20;0.20;;;;;;;;;;5091179;28;20411;-62
2021/06/15 13:52:48;;;;;;;0.20;0.20;;;;;;;;;;5091328;28;20424;-62
2021/06/15 13:55:15;;;;;;;0.20;0.20;;;;;;;;;;5091290;28;20896;-62
2021/06/15 13:57:41;;;;;;;0.20;0.20;;;;;;;;;;5091099;28;20883;-62
2021/06/15 14:00:09;;;;;;;0.20;0.20;;;;;;;;;;5091074;28;20406;-62
2021/06/15 14:02:35;;;;;;;0.20;0.20;;;;;;;;;;5091197;28;20439;-62
2021/06/15 14:05:01;;;;;;;0.20;0.20;;;;;;;;;;5091392;28;20409;-62
2021/06/15 14:07:27;;;;;;;0.20;0.20;;;;;;;;;;5091262;28;20416;-65
2021/06/15 14:09:54;;;;;;;0.20;0.20;;;;;;;;;;5090982;28;20487;-63
2021/06/15 14:12:20;;;;;;;0.20;0.20;;;;;;;;;;5091073;28;20383;-62
2021/06/15 14:14:46;;;;;;;0.20;0.20;;;;;;;;;;5090967;28;20409;-63
2021/06/15 14:17:12;;;;;;;0.20;0.20;;;;;;;;;;5075925;28;20420;-62
2021/06/15 14:19:38;;;;;;;0.20;0.20;;;;;;;;;;5070765;28;20421;-63
2021/06/15 14:22:04;;;;;;;0.20;0.20;;;;;;;;;;5070907;28;20384;-62
2021/06/15 14:24:30;;;;;;;0.20;0.20;;;;;;;;;;5070818;28;20429;-62
2021/06/15 14:27:03;;;;;;;0.20;0.20;;;;;;;;;;5070574;28;20431;-63
2021/06/15 14:29:32;;;;;;;0.20;0.20;;;;;;;;;;5070524;28;20372;-62
2021/06/15 14:31:59;;;;;;;0.20;0.20;;;;;;;;;;5070927;28;20889;-62
2021/06/15 14:34:25;;;;;;;0.20;0.20;;;;;;;;;;5070651;28;20449;-62
2021/06/15 14:36:51;;;;;;;0.20;0.20;;;;;;;;;;5070783;28;20769;-63
2021/06/15 14:39:17;;;;;;;0.20;0.20;;;;;;;;;;5070859;28;20446;-63
2021/06/15 14:41:43;;;;;;;0.20;0.20;;;;;;;;;;5070808;28;20750;-63
2021/06/15 14:44:09;;;;;;;0.20;0.20;;;;;;;;;;5070302;28;20472;-62
2021/06/15 14:46:36;;;;;;;0.20;0.20;;;;;;;;;;5070747;28;20457;-63
2021/06/15 14:49:03;;;;;;;0.20;0.20;;;;;;;;;;5071944;28;20474;-63
2021/06/15 14:51:29;;;;;;;0.20;0.20;;;;;;;;;;5074724;28;20417;-63
2021/06/15 14:54:03;;;;;;;0.20;0.20;;;;;;;;;;5074543;28;20522;-62